Time;durP1;ratioP1;P1;durP2;ratioP2;P2;SDS_P1;SDS_P2;PMS_P1;PMS_P2;Temp;Humidity;BMP_temperature;BMP_pressure;BME280_temperature;BME280_humidity;BME280_pressure;Samples;Min_cycle;Max_cycle;Signal;HPM_P1;HPM_P2
2024/01/17 00:00:28;;;;;;;17.45;7.82;;;-0.20;99.90;;;;;;4976095;28;20121;-75
2024/01/17 00:02:53;;;;;;;17.85;7.25;;;-0.20;99.90;;;;;;4988297;28;20038;-76
2024/01/17 00:05:22;;;;;;;17.60;7.45;;;-0.30;99.90;;;;;;4984102;28;20050;-75
2024/01/17 00:07:51;;;;;;;14.85;7.10;;;-0.10;99.90;;;;;;5013210;28;20072;-76
2024/01/17 00:10:18;;;;;;;13.88;7.43;;;-0.20;99.90;;;;;;5003305;28;20049;-75
2024/01/17 00:12:44;;;;;;;15.10;8.18;;;-0.20;99.90;;;;;;4989265;28;20556;-76
2024/01/17 00:15:10;;;;;;;18.20;8.38;;;1.40;99.90;;;;;;5010259;28;20490;-75
2024/01/17 00:17:36;;;;;;;17.95;8.80;;;-0.20;99.90;;;;;;4984625;28;20058;-75
2024/01/17 00:20:01;;;;;;;17.02;7.63;;;-0.30;99.90;;;;;;4997975;28;20421;-75
2024/01/17 00:22:27;;;;;;;15.88;8.18;;;-0.20;99.90;;;;;;4978523;28;20442;-75
2024/01/17 00:24:53;;;;;;;18.17;8.20;;;-0.30;99.90;;;;;;5008082;28;20069;-76
2024/01/17 00:27:25;;;;;;;18.40;8.68;;;-0.30;99.90;;;;;;5011003;28;20281;-75
2024/01/17 00:29:57;;;;;;;19.75;9.05;;;-0.20;99.90;;;;;;4991941;28;20053;-76
2024/01/17 00:32:26;;;;;;;16.92;8.52;;;-0.20;99.90;;;;;;5015274;28;20482;-76
2024/01/17 00:34:54;;;;;;;17.48;8.50;;;-0.20;99.90;;;;;;4978747;28;20471;-75
2024/01/17 00:37:19;;;;;;;17.48;8.38;;;0.60;99.90;;;;;;4992036;28;20048;-75
2024/01/17 00:39:45;;;;;;;17.48;8.90;;;-0.20;99.90;;;;;;5025676;22;20556;-78
2024/01/17 00:42:11;;;;;;;17.77;9.02;;;-0.20;99.90;;;;;;5026843;28;20075;-79
2024/01/17 00:44:39;;;;;;;17.17;8.80;;;-0.20;99.90;;;;;;5046585;28;20045;-78
2024/01/17 00:47:05;;;;;;;22.27;10.23;;;-0.20;99.90;;;;;;5016960;28;20076;-78
2024/01/17 00:49:31;;;;;;;18.65;9.43;;;-0.20;99.90;;;;;;4996844;28;20088;-78
2024/01/17 00:51:57;;;;;;;22.35;9.27;;;-0.30;99.90;;;;;;5008676;28;20038;-77
2024/01/17 00:54:22;;;;;;;17.77;8.25;;;-0.20;99.90;;;;;;5012144;28;20082;-77
2024/01/17 00:56:48;;;;;;;23.67;10.35;;;-0.30;99.90;;;;;;5008829;28;20100;-78
2024/01/17 00:59:13;;;;;;;20.42;9.02;;;-0.30;99.90;;;;;;5012222;28;20056;-78
2024/01/17 01:01:39;;;;;;;18.67;9.48;;;-0.30;99.90;;;;;;5025353;28;20714;-78
2024/01/17 01:04:05;;;;;;;17.98;9.73;;;-0.40;99.90;;;;;;5011282;28;20037;-78
2024/01/17 01:06:30;;;;;;;15.88;8.73;;;-0.10;99.90;;;;;;5027230;28;20445;-78
2024/01/17 01:08:56;;;;;;;16.98;9.52;;;-0.40;99.90;;;;;;4994345;28;20046;-77
2024/01/17 01:11:21;;;;;;;18.35;9.93;;;-0.40;99.90;;;;;;5018955;28;20394;-77
2024/01/17 01:13:47;;;;;;;18.98;9.50;;;-0.40;99.90;;;;;;5009925;28;20208;-78
2024/01/17 01:16:13;;;;;;;16.00;9.60;;;-0.40;99.90;;;;;;5008630;28;20095;-78
2024/01/17 01:18:38;;;;;;;18.63;9.68;;;-0.40;99.90;;;;;;5029776;28;20037;-78
2024/01/17 01:21:04;;;;;;;20.80;9.32;;;-0.40;99.90;;;;;;5020250;28;20037;-77
2024/01/17 01:23:29;;;;;;;18.90;9.40;;;-0.40;99.90;;;;;;5022195;28;20038;-78
2024/01/17 01:25:55;;;;;;;23.42;9.75;;;-0.40;99.90;;;;;;5023212;28;20171;-78
2024/01/17 01:28:20;;;;;;;18.65;9.95;;;-0.40;99.90;;;;;;5013195;28;20046;-78
2024/01/17 01:30:46;;;;;;;18.55;10.35;;;-0.40;99.90;;;;;;5025644;28;20033;-77
2024/01/17 01:33:12;;;;;;;19.80;9.90;;;-0.40;99.90;;;;;;4993798;28;20445;-78
2024/01/17 01:35:37;;;;;;;16.17;9.85;;;-0.40;99.90;;;;;;5012366;28;20037;-78
2024/01/17 01:38:03;;;;;;;17.02;9.65;;;-0.30;99.90;;;;;;5012711;28;20144;-79
2024/01/17 01:40:28;;;;;;;19.35;10.63;;;-0.40;99.90;;;;;;5001721;28;20561;-77
2024/01/17 01:42:58;;;;;;;18.75;11.00;;;-0.40;99.90;;;;;;5004328;28;20391;-77
2024/01/17 01:45:24;;;;;;;17.38;10.18;;;-0.40;99.90;;;;;;4996371;28;20041;-77
2024/01/17 01:47:50;;;;;;;24.08;11.52;;;-0.30;99.90;;;;;;5000150;28;20121;-78
2024/01/17 01:50:16;;;;;;;24.73;10.95;;;-0.40;99.90;;;;;;5007562;28;20117;-77
2024/01/17 01:52:45;;;;;;;19.48;10.95;;;-0.40;99.90;;;;;;5013302;28;20121;-78
2024/01/17 01:55:11;;;;;;;23.08;11.15;;;-0.30;99.90;;;;;;4995670;28;20041;-78
2024/01/17 01:57:42;;;;;;;22.83;11.63;;;-0.40;99.90;;;;;;4993972;28;20410;-78
2024/01/17 02:00:09;;;;;;;23.33;12.43;;;-0.40;99.90;;;;;;5001394;28;20042;-78
2024/01/17 02:02:34;;;;;;;22.33;12.30;;;-0.40;99.90;;;;;;4995164;28;20061;-78
2024/01/17 02:05:03;;;;;;;26.58;11.70;;;0.50;99.90;;;;;;5010348;28;20170;-78
2024/01/17 02:07:30;;;;;;;20.60;11.55;;;-0.40;99.90;;;;;;5012512;28;20204;-78
2024/01/17 02:09:56;;;;;;;26.05;11.98;;;-0.40;99.90;;;;;;5010228;28;20072;-78
2024/01/17 02:12:21;;;;;;;23.45;11.65;;;-0.40;99.90;;;;;;5003738;28;20042;-78
2024/01/17 02:14:47;;;;;;;20.90;11.88;;;-0.40;99.90;;;;;;5009232;28;20030;-78
2024/01/17 02:17:13;;;;;;;23.13;11.32;;;-0.40;99.90;;;;;;5009864;28;20037;-78
2024/01/17 02:19:40;;;;;;;24.50;12.25;;;-0.40;99.90;;;;;;5005560;28;20045;-79
2024/01/17 02:22:06;;;;;;;23.42;12.68;;;-0.40;99.90;;;;;;5008343;28;20049;-79
2024/01/17 02:24:32;;;;;;;23.05;12.70;;;-0.40;99.90;;;;;;5008769;28;20034;-78
2024/01/17 02:27:01;;;;;;;24.98;12.43;;;-0.40;99.90;;;;;;5004544;28;20041;-78
2024/01/17 02:29:30;;;;;;;23.67;12.68;;;-0.50;99.90;;;;;;5012774;28;20073;-78
2024/01/17 02:31:56;;;;;;;21.50;12.23;;;-0.50;99.90;;;;;;5022296;28;20038;-78
2024/01/17 02:34:22;;;;;;;25.52;12.85;;;-0.50;99.90;;;;;;4994444;28;20038;-78
2024/01/17 02:36:48;;;;;;;25.48;12.95;;;-0.50;99.90;;;;;;5008199;28;20092;-78
2024/01/17 02:39:15;;;;;;;22.52;12.80;;;-0.20;99.90;;;;;;5006828;28;20449;-78
2024/01/17 02:41:43;;;;;;;24.30;13.77;;;-0.50;99.90;;;;;;5009362;28;20124;-77
2024/01/17 02:44:09;;;;;;;20.85;12.13;;;-0.40;99.90;;;;;;5012946;28;20129;-78
2024/01/17 02:46:35;;;;;;;23.85;13.05;;;0.30;99.90;;;;;;5010313;28;20125;-79
2024/01/17 02:49:00;;;;;;;23.48;12.60;;;-0.50;99.90;;;;;;5000688;28;20077;-78
2024/01/17 02:51:26;;;;;;;29.60;12.88;;;-0.50;99.90;;;;;;5007089;28;20034;-77
2024/01/17 02:53:51;;;;;;;25.25;12.93;;;-0.50;99.90;;;;;;5011076;28;20034;-78
2024/01/17 02:56:17;;;;;;;23.15;12.23;;;-0.50;99.90;;;;;;5003232;28;20033;-79
2024/01/17 02:58:43;;;;;;;27.10;13.07;;;-0.50;99.90;;;;;;4992797;28;20044;-78
2024/01/17 03:01:08;;;;;;;25.73;13.52;;;-0.50;99.90;;;;;;5002407;28;20056;-78
2024/01/17 03:03:34;;;;;;;23.88;12.40;;;-0.50;99.90;;;;;;5009386;28;20045;-78
2024/01/17 03:06:00;;;;;;;19.67;12.57;;;-0.50;99.90;;;;;;5012454;28;20128;-78
2024/01/17 03:08:25;;;;;;;27.13;12.93;;;-0.50;99.90;;;;;;5009103;28;20053;-79
2024/01/17 03:10:51;;;;;;;26.25;13.27;;;-0.60;99.90;;;;;;4999365;28;20038;-78
2024/01/17 03:13:16;;;;;;;25.27;12.98;;;-0.60;99.90;;;;;;5003231;28;20046;-78
2024/01/17 03:15:42;;;;;;;25.52;12.85;;;-0.60;99.90;;;;;;5004676;28;20061;-78
2024/01/17 03:18:13;;;;;;;28.55;13.13;;;-0.60;99.90;;;;;;5032507;28;20033;-78
2024/01/17 03:20:40;;;;;;;22.83;12.55;;;-0.60;99.90;;;;;;5009486;28;20096;-78
2024/01/17 03:23:05;;;;;;;24.85;12.65;;;-0.60;99.90;;;;;;5007993;28;20029;-78
2024/01/17 03:25:31;;;;;;;22.60;13.45;;;-0.60;99.90;;;;;;5005565;28;20057;-78
2024/01/17 03:27:56;;;;;;;27.15;13.07;;;-0.60;99.90;;;;;;5005467;28;20037;-78
2024/01/17 03:30:22;;;;;;;25.25;12.75;;;-0.70;99.90;;;;;;5006902;28;20049;-78
2024/01/17 03:32:48;;;;;;;23.85;13.35;;;-0.70;99.90;;;;;;5011342;28;20052;-77
2024/01/17 03:35:13;;;;;;;27.85;13.27;;;-0.70;99.90;;;;;;5016040;28;20033;-78
2024/01/17 03:37:39;;;;;;;23.40;12.90;;;-0.70;99.90;;;;;;5008518;28;20040;-78
2024/01/17 03:40:05;;;;;;;24.98;13.23;;;-0.70;99.90;;;;;;5014595;28;20066;-78
2024/01/17 03:42:30;;;;;;;25.17;12.20;;;-0.70;99.90;;;;;;5013307;28;20041;-78
2024/01/17 03:44:56;;;;;;;24.83;12.43;;;-0.60;99.90;;;;;;5020702;28;20091;-78
2024/01/17 03:47:21;;;;;;;22.33;12.40;;;-0.30;99.90;;;;;;5014753;28;20042;-79
2024/01/17 03:49:47;;;;;;;21.55;12.52;;;-0.20;99.90;;;;;;5015151;28;20045;-79
2024/01/17 03:52:12;;;;;;;28.52;12.98;;;-0.40;99.90;;;;;;5003586;28;20119;-78
2024/01/17 03:54:38;;;;;;;25.67;12.75;;;-0.70;99.90;;;;;;5029723;28;20513;-78
2024/01/17 03:57:05;;;;;;;24.85;12.80;;;-0.80;99.90;;;;;;5028075;28;20041;-78
2024/01/17 03:59:30;;;;;;;22.67;12.55;;;-0.80;99.90;;;;;;5014718;28;20391;-78
2024/01/17 04:01:56;;;;;;;22.75;12.50;;;-0.70;99.90;;;;;;5014570;28;20135;-78
2024/01/17 04:04:21;;;;;;;26.48;12.77;;;-0.70;99.90;;;;;;5012483;28;20053;-78
2024/01/17 04:06:47;;;;;;;26.17;12.73;;;-0.60;99.90;;;;;;5003852;28;20070;-79
2024/01/17 04:09:13;;;;;;;22.02;12.30;;;-0.70;99.90;;;;;;5011436;28;20100;-78
2024/01/17 04:11:38;;;;;;;23.20;11.77;;;-0.70;99.90;;;;;;5013182;28;20048;-79
2024/01/17 04:14:04;;;;;;;21.90;11.80;;;-1.40;99.90;;;;;;5010170;28;20065;-78
2024/01/17 04:16:30;;;;;;;20.42;12.23;;;-0.60;99.90;;;;;;5010700;28;20048;-79
2024/01/17 04:18:55;;;;;;;22.38;11.90;;;-0.70;99.90;;;;;;5006137;28;20064;-79
2024/01/17 04:21:21;;;;;;;20.20;11.90;;;-0.70;99.90;;;;;;5009039;28;20065;-78
2024/01/17 04:23:50;;;;;;;22.23;12.23;;;-0.70;99.90;;;;;;5011300;28;20045;-78
2024/01/17 04:26:23;;;;;;;23.67;12.43;;;-0.70;99.90;;;;;;5010440;28;20038;-78
2024/01/17 04:28:50;;;;;;;26.27;12.00;;;-0.70;99.90;;;;;;5013899;28;20045;-78
2024/01/17 04:31:29;;;;;;;22.23;11.10;;;-0.60;99.90;;;;;;4984663;28;20111;-79
2024/01/17 04:33:56;;;;;;;21.90;12.45;;;-0.70;99.90;;;;;;5009536;28;20038;-78
2024/01/17 04:36:24;;;;;;;18.02;11.35;;;-0.60;99.90;;;;;;5011848;28;20042;-78
2024/01/17 04:38:49;;;;;;;23.13;11.43;;;-0.70;99.90;;;;;;4988260;28;20033;-78
2024/01/17 04:41:16;;;;;;;21.75;11.32;;;-0.70;99.90;;;;;;5013782;28;20095;-78
2024/01/17 04:43:44;;;;;;;23.92;11.63;;;-0.70;99.90;;;;;;4987604;28;20199;-78
2024/01/17 04:46:12;;;;;;;18.70;11.23;;;-0.70;99.90;;;;;;5010897;28;20087;-78
2024/01/17 04:48:39;;;;;;;22.00;11.07;;;-0.70;99.90;;;;;;5003101;28;20041;-77
2024/01/17 04:51:05;;;;;;;23.05;11.90;;;-0.70;99.90;;;;;;5008118;28;20072;-79
2024/01/17 04:53:32;;;;;;;23.80;11.23;;;0.00;99.90;;;;;;5027501;28;20053;-78
2024/01/17 04:55:59;;;;;;;21.77;11.15;;;-0.70;99.90;;;;;;5005045;28;20684;-78
2024/01/17 04:58:25;;;;;;;21.45;11.20;;;-0.70;99.90;;;;;;5012634;28;20041;-78
2024/01/17 05:00:51;;;;;;;20.95;11.32;;;-0.70;99.90;;;;;;5002262;28;20486;-78
2024/01/17 05:03:17;;;;;;;18.63;11.48;;;-0.40;99.90;;;;;;5008714;28;20036;-81
2024/01/17 05:05:45;;;;;;;22.05;10.65;;;-0.80;99.90;;;;;;5014052;28;20044;-79
2024/01/17 05:08:12;;;;;;;25.77;11.52;;;-0.80;99.90;;;;;;5009653;28;20469;-78
2024/01/17 05:10:41;;;;;;;20.55;11.13;;;-0.80;99.90;;;;;;5023912;28;20049;-77
2024/01/17 05:13:07;;;;;;;23.00;11.48;;;-0.80;99.90;;;;;;5006876;28;20450;-79
2024/01/17 05:15:32;;;;;;;18.95;10.65;;;-0.80;99.90;;;;;;4996324;28;20042;-78
2024/01/17 05:17:58;;;;;;;19.42;10.65;;;-0.80;99.90;;;;;;5018569;28;20048;-79
2024/01/17 05:20:24;;;;;;;20.48;10.73;;;-0.80;99.90;;;;;;5011522;28;20060;-78
2024/01/17 05:22:49;;;;;;;21.88;11.60;;;-0.80;99.90;;;;;;5006015;28;20038;-79
2024/01/17 05:25:15;;;;;;;23.70;10.68;;;-0.80;99.90;;;;;;5016192;28;20041;-77
2024/01/17 05:27:40;;;;;;;20.10;11.10;;;-0.80;99.90;;;;;;4985357;28;20076;-78
2024/01/17 05:30:09;;;;;;;20.67;10.73;;;-0.80;99.90;;;;;;4996204;28;20488;-78
2024/01/17 05:32:37;;;;;;;21.23;10.60;;;-0.80;99.90;;;;;;5021238;28;20077;-78
2024/01/17 05:35:03;;;;;;;19.83;10.45;;;-0.90;99.90;;;;;;5006886;28;20080;-79
2024/01/17 05:37:29;;;;;;;21.70;10.98;;;-0.80;99.90;;;;;;5018170;28;20073;-78
2024/01/17 05:39:55;;;;;;;20.65;10.73;;;-0.80;99.90;;;;;;5006982;28;20549;-78
2024/01/17 05:42:21;;;;;;;21.13;10.20;;;-0.90;99.90;;;;;;5001879;28;20077;-78
2024/01/17 05:44:47;;;;;;;19.27;10.88;;;-0.90;99.90;;;;;;5007853;28;20044;-77
2024/01/17 05:47:13;;;;;;;20.13;10.55;;;-0.90;99.90;;;;;;5018782;28;20042;-78
2024/01/17 05:49:38;;;;;;;21.25;9.80;;;-0.90;99.90;;;;;;5007320;28;20054;-78
2024/01/17 05:52:04;;;;;;;21.10;10.32;;;-1.00;99.90;;;;;;5013154;28;20390;-78
2024/01/17 05:54:30;;;;;;;20.88;10.50;;;-1.00;99.90;;;;;;5012469;28;20401;-78
2024/01/17 05:56:55;;;;;;;21.20;10.63;;;-1.00;99.90;;;;;;4999775;28;20120;-77
2024/01/17 05:59:21;;;;;;;22.00;11.20;;;-1.10;99.90;;;;;;5002545;28;20079;-77
2024/01/17 06:01:46;;;;;;;21.25;11.68;;;-1.10;99.90;;;;;;5021608;28;20050;-78
2024/01/17 06:04:13;;;;;;;17.45;10.30;;;-1.10;99.90;;;;;;5007037;28;20398;-78
2024/01/17 06:06:38;;;;;;;23.33;10.77;;;-1.10;99.90;;;;;;5001603;28;20045;-78
2024/01/17 06:09:05;;;;;;;18.40;10.57;;;-1.20;99.90;;;;;;5018389;28;20053;-78
2024/01/17 06:11:30;;;;;;;16.77;10.18;;;-1.20;99.90;;;;;;4993618;28;20636;-78
2024/01/17 06:13:56;;;;;;;19.48;10.30;;;-1.50;99.90;;;;;;5006648;28;20038;-78
2024/01/17 06:16:22;;;;;;;20.60;10.23;;;-1.30;99.90;;;;;;5015063;28;20038;-78
2024/01/17 06:18:48;;;;;;;19.85;10.80;;;-1.30;99.90;;;;;;5024517;28;20041;-78
2024/01/17 06:21:13;;;;;;;19.13;11.25;;;-1.30;99.90;;;;;;5004071;28;20116;-79
2024/01/17 06:23:39;;;;;;;20.65;11.25;;;-1.30;99.90;;;;;;5009285;28;20051;-78
2024/01/17 06:26:04;;;;;;;18.05;10.73;;;-1.30;99.90;;;;;;5021511;28;20064;-78
2024/01/17 06:28:33;;;;;;;24.52;11.75;;;-1.40;99.90;;;;;;5002156;28;20037;-77
2024/01/17 06:30:59;;;;;;;23.52;10.30;;;-1.30;99.90;;;;;;5027612;28;20045;-77
2024/01/17 06:33:25;;;;;;;17.67;9.90;;;-3.00;99.90;;;;;;5010430;28;20038;-78
2024/01/17 06:35:51;;;;;;;25.65;10.65;;;-1.40;99.90;;;;;;5019920;28;20117;-78
2024/01/17 06:38:17;;;;;;;21.08;10.20;;;-1.40;99.90;;;;;;5007628;28;20041;-78
2024/01/17 06:40:42;;;;;;;18.45;10.98;;;-1.30;99.90;;;;;;5005177;28;20482;-78
2024/01/17 06:43:08;;;;;;;20.23;11.05;;;-0.30;99.90;;;;;;5004291;28;20045;-78
2024/01/17 06:45:33;;;;;;;19.23;10.48;;;-1.50;99.90;;;;;;4994664;28;20517;-79
2024/01/17 06:48:01;;;;;;;20.48;10.65;;;-1.40;99.90;;;;;;5009355;28;20034;-78
2024/01/17 06:50:27;;;;;;;20.33;10.57;;;-1.60;99.90;;;;;;5028872;22;20683;-74
2024/01/17 06:52:53;;;;;;;19.35;10.52;;;-1.60;99.90;;;;;;5013134;28;20110;-75
2024/01/17 06:55:20;;;;;;;23.30;11.05;;;-1.60;99.90;;;;;;5032758;28;20033;-75
2024/01/17 06:57:46;;;;;;;21.52;10.50;;;-2.70;99.90;;;;;;4994981;28;20084;-74
2024/01/17 07:00:13;;;;;;;21.10;10.90;;;-1.60;99.90;;;;;;5032948;28;20081;-74
2024/01/17 07:02:47;;;;;;;19.23;10.07;;;-1.60;99.90;;;;;;5014850;28;20064;-75
2024/01/17 07:05:18;;;;;;;19.50;10.32;;;-1.60;99.90;;;;;;5016196;28;20132;-76
2024/01/17 07:07:45;;;;;;;20.67;10.23;;;-1.60;99.90;;;;;;5015429;28;20156;-75
2024/01/17 07:10:11;;;;;;;20.10;10.55;;;-2.90;99.90;;;;;;5013117;28;20042;-75
2024/01/17 07:12:36;;;;;;;17.88;9.98;;;-1.60;99.90;;;;;;5010979;28;20056;-75
2024/01/17 07:15:03;;;;;;;21.40;11.40;;;-1.60;99.90;;;;;;5015787;28;20049;-74
2024/01/17 07:17:29;;;;;;;24.60;11.60;;;-1.60;99.90;;;;;;5016071;28;20072;-75
2024/01/17 07:19:54;;;;;;;19.52;10.95;;;-1.60;99.90;;;;;;5010488;28;20050;-75
2024/01/17 07:22:20;;;;;;;22.38;10.60;;;-1.60;99.90;;;;;;5027249;28;20045;-74
2024/01/17 07:24:45;;;;;;;18.27;11.13;;;-1.70;99.90;;;;;;5009046;28;20057;-74
2024/01/17 07:27:11;;;;;;;18.40;10.55;;;-1.70;99.90;;;;;;5033896;28;20052;-75
2024/01/17 07:29:37;;;;;;;19.38;10.40;;;-1.70;99.90;;;;;;5010578;28;20113;-74
2024/01/17 07:32:03;;;;;;;19.60;10.27;;;-1.70;99.90;;;;;;5002054;28;20125;-74
2024/01/17 07:34:29;;;;;;;21.10;10.25;;;-1.70;99.90;;;;;;5011773;28;20042;-74
2024/01/17 07:36:54;;;;;;;19.42;10.23;;;-1.70;99.90;;;;;;5015808;28;20045;-75
2024/01/17 07:39:21;;;;;;;20.70;10.75;;;-1.70;99.90;;;;;;5015957;28;20408;-76
2024/01/17 07:41:47;;;;;;;15.95;9.32;;;-1.80;99.90;;;;;;4989179;28;20076;-74
2024/01/17 07:44:14;;;;;;;17.52;9.90;;;-1.70;99.90;;;;;;4997500;28;20069;-74
2024/01/17 07:46:39;;;;;;;21.45;9.85;;;-1.70;99.90;;;;;;5010032;28;20469;-75
2024/01/17 07:49:05;;;;;;;18.63;10.70;;;-1.60;99.90;;;;;;5015295;28;20129;-75
2024/01/17 07:51:31;;;;;;;18.67;10.18;;;-0.80;99.90;;;;;;5015141;28;20071;-74
2024/01/17 07:53:57;;;;;;;18.20;9.88;;;-1.70;99.90;;;;;;5010941;28;20041;-74
2024/01/17 07:56:23;;;;;;;19.63;10.23;;;-1.60;99.90;;;;;;5027435;28;20068;-74
2024/01/17 07:58:52;;;;;;;19.80;10.50;;;-1.70;99.90;;;;;;5028626;28;20034;-74
2024/01/17 08:01:18;;;;;;;22.50;10.02;;;-1.70;99.90;;;;;;5024511;28;20091;-75
2024/01/17 08:03:43;;;;;;;21.55;10.98;;;-1.70;99.90;;;;;;5012157;28;20056;-74
2024/01/17 08:06:09;;;;;;;21.08;11.07;;;-1.70;99.90;;;;;;5007129;28;20040;-74
2024/01/17 08:08:35;;;;;;;19.60;9.82;;;-1.40;99.90;;;;;;5019561;28;20056;-74
2024/01/17 08:11:05;;;;;;;19.23;9.65;;;-1.70;99.90;;;;;;5008941;28;20045;-74
2024/01/17 08:13:33;;;;;;;19.20;10.43;;;-1.70;99.90;;;;;;5030057;28;20048;-74
2024/01/17 08:15:59;;;;;;;20.55;10.15;;;-1.30;99.90;;;;;;5032301;28;20393;-73
2024/01/17 08:18:25;;;;;;;21.27;9.90;;;-1.70;99.90;;;;;;5030163;28;20049;-74
2024/01/17 08:20:51;;;;;;;21.02;10.73;;;-1.60;99.90;;;;;;5032434;28;20087;-76
2024/01/17 08:23:20;;;;;;;16.67;9.10;;;-1.70;99.90;;;;;;5010405;28;20048;-76
2024/01/17 08:25:45;;;;;;;18.95;9.90;;;-1.40;99.90;;;;;;5023542;28;20091;-73
2024/01/17 08:28:14;;;;;;;18.67;9.68;;;-1.60;99.90;;;;;;5008700;28;20410;-74
2024/01/17 08:30:39;;;;;;;21.17;10.07;;;-1.60;99.90;;;;;;5014634;28;20485;-74
2024/01/17 08:33:07;;;;;;;17.63;10.25;;;-1.60;99.90;;;;;;5020801;28;20042;-74
2024/01/17 08:35:33;;;;;;;19.67;10.23;;;-0.80;99.90;;;;;;5006182;28;20040;-74
2024/01/17 08:37:58;;;;;;;18.17;9.93;;;-1.50;99.90;;;;;;5027890;28;20108;-74
2024/01/17 08:40:24;;;;;;;18.65;9.90;;;-1.50;99.90;;;;;;5005720;28;20052;-74
2024/01/17 08:42:49;;;;;;;18.58;10.35;;;-1.50;99.90;;;;;;5010366;28;20046;-75
2024/01/17 08:45:17;;;;;;;24.88;10.40;;;-1.50;99.90;;;;;;5004210;28;20504;-74
2024/01/17 08:47:43;;;;;;;19.90;9.93;;;-0.10;99.90;;;;;;5004329;28;20080;-74
2024/01/17 08:50:13;;;;;;;17.75;9.88;;;-1.50;99.90;;;;;;5012135;28;20517;-75
2024/01/17 08:52:39;;;;;;;16.30;9.48;;;-1.50;99.90;;;;;;5028008;28;20497;-72
2024/01/17 08:55:08;;;;;;;20.60;10.43;;;-1.50;99.90;;;;;;5004803;28;20405;-73
2024/01/17 08:57:36;;;;;;;22.55;10.45;;;-1.50;99.90;;;;;;5005356;28;20042;-72
2024/01/17 09:00:05;;;;;;;21.08;10.15;;;-1.50;99.90;;;;;;5023004;28;20478;-73
2024/01/17 09:02:31;;;;;;;18.30;9.43;;;-0.20;99.90;;;;;;5027116;28;20037;-75
2024/01/17 09:04:57;;;;;;;18.45;10.32;;;-1.40;99.90;;;;;;4996710;28;20040;-74
2024/01/17 09:07:23;;;;;;;17.08;9.98;;;-1.40;99.90;;;;;;4994904;28;20038;-74
2024/01/17 09:09:49;;;;;;;24.52;10.90;;;-1.40;99.90;;;;;;5003181;28;20038;-74
2024/01/17 09:12:17;;;;;;;18.13;10.38;;;-1.30;99.90;;;;;;5024531;28;20052;-73
2024/01/17 09:14:43;;;;;;;21.33;9.82;;;-1.30;99.90;;;;;;5010213;28;20048;-74
2024/01/17 09:17:09;;;;;;;19.77;10.10;;;-1.30;99.90;;;;;;5016975;28;20045;-73
2024/01/17 09:19:34;;;;;;;20.17;10.45;;;-1.30;99.90;;;;;;5023514;28;20505;-74
2024/01/17 09:22:00;;;;;;;20.33;9.95;;;-1.20;99.90;;;;;;5013088;28;20120;-74
2024/01/17 09:24:26;;;;;;;20.17;10.00;;;-1.20;99.90;;;;;;5026723;28;20107;-74
2024/01/17 09:26:52;;;;;;;21.33;10.05;;;-1.10;99.90;;;;;;5011426;28;20037;-74
2024/01/17 09:29:18;;;;;;;17.08;9.80;;;-1.10;99.90;;;;;;5012490;28;20040;-74
2024/01/17 09:31:44;;;;;;;19.05;10.65;;;-1.10;99.90;;;;;;5010240;28;20068;-74
2024/01/17 09:34:09;;;;;;;23.63;9.80;;;-1.10;99.90;;;;;;5031095;28;20046;-74
2024/01/17 09:36:35;;;;;;;19.73;10.07;;;-1.10;99.90;;;;;;5026686;28;20036;-74
2024/01/17 09:39:01;;;;;;;17.60;9.55;;;-1.00;99.90;;;;;;5013021;28;20108;-73
2024/01/17 09:41:26;;;;;;;15.90;8.93;;;-1.00;99.90;;;;;;5026850;28;20041;-74
2024/01/17 09:43:56;;;;;;;19.95;10.15;;;-1.00;99.90;;;;;;5007503;28;20069;-74
2024/01/17 09:46:22;;;;;;;16.98;9.75;;;-0.90;99.90;;;;;;5006796;28;20046;-73
2024/01/17 09:48:48;;;;;;;16.80;9.82;;;-1.00;99.90;;;;;;5013134;28;20124;-73
2024/01/17 09:51:21;;;;;;;17.23;9.20;;;-0.60;99.90;;;;;;4990133;28;20573;-74
2024/01/17 09:53:48;;;;;;;;;;;-0.90;99.90;;;;;;5024288;28;20036;-74
2024/01/17 09:56:16;;;;;;;21.13;9.38;;;-0.50;99.90;;;;;;5028160;28;19920;-73
2024/01/17 09:58:45;;;;;;;17.10;9.52;;;0.10;99.90;;;;;;5028491;28;20163;-73
2024/01/17 10:01:14;;;;;;;16.35;9.57;;;-0.80;99.90;;;;;;5008216;28;20053;-74
2024/01/17 10:03:41;;;;;;;18.05;9.18;;;-0.80;99.90;;;;;;4996909;28;20033;-74
2024/01/17 10:06:08;;;;;;;19.17;9.10;;;-0.80;99.90;;;;;;5026135;28;20040;-75
2024/01/17 10:08:35;;;;;;;18.45;8.93;;;-0.80;99.90;;;;;;5001259;28;20042;-74
2024/01/17 10:11:00;;;;;;;16.17;9.02;;;-0.80;99.90;;;;;;5006804;28;20051;-74
2024/01/17 10:13:26;;;;;;;19.58;8.65;;;-0.60;99.90;;;;;;5013968;28;20041;-75
2024/01/17 10:15:53;;;;;;;18.38;8.73;;;-0.70;99.90;;;;;;5024697;28;20030;-74
2024/01/17 10:18:19;;;;;;;16.25;9.10;;;-0.70;99.90;;;;;;5012770;28;20037;-74
2024/01/17 10:20:45;;;;;;;16.23;9.23;;;-0.70;99.90;;;;;;4993773;28;20037;-73
2024/01/17 10:23:15;;;;;;;19.77;9.05;;;-0.70;99.90;;;;;;5027430;28;20378;-74
2024/01/17 10:25:41;;;;;;;15.48;8.68;;;-0.70;99.90;;;;;;5033688;28;20124;-73
2024/01/17 10:28:08;;;;;;;17.65;9.73;;;-0.60;99.90;;;;;;4995040;28;20095;-73
2024/01/17 10:30:37;;;;;;;16.63;9.30;;;-0.60;99.90;;;;;;5013807;28;20426;-73
2024/01/17 10:33:03;;;;;;;15.50;9.23;;;-0.60;99.90;;;;;;5033354;28;20096;-74
2024/01/17 10:35:30;;;;;;;19.38;9.95;;;-0.60;99.90;;;;;;4992459;28;20051;-74
2024/01/17 10:37:57;;;;;;;15.23;8.82;;;-0.60;99.90;;;;;;5014672;28;20037;-74
2024/01/17 10:40:23;;;;;;;22.55;9.55;;;-0.50;99.90;;;;;;5016203;28;20048;-74
2024/01/17 10:43:09;;;;;;;18.02;9.20;;;-0.50;99.90;;;;;;4992065;28;20041;-74
2024/01/17 10:45:39;;;;;;;20.25;9.63;;;-0.50;99.90;;;;;;5027084;28;20434;-75
2024/01/17 10:48:06;;;;;;;17.30;9.05;;;-0.50;99.90;;;;;;5028906;28;20045;-75
2024/01/17 10:50:32;;;;;;;18.45;9.70;;;-0.40;99.90;;;;;;5032558;28;20040;-73
2024/01/17 10:53:06;;;;;;;17.67;9.77;;;-0.40;99.90;;;;;;5007777;28;20187;-75
2024/01/17 10:55:36;;;;;;;17.48;9.23;;;-0.40;99.90;;;;;;4996643;28;20500;-74
2024/01/17 10:58:09;;;;;;;14.52;8.70;;;-0.30;99.90;;;;;;4990436;28;20041;-74
2024/01/17 11:00:38;;;;;;;19.20;8.70;;;-0.30;99.90;;;;;;5030186;28;20049;-74
2024/01/17 11:03:08;;;;;;;15.25;8.60;;;-0.30;99.90;;;;;;5028550;28;20083;-74
2024/01/17 11:05:49;;;;;;;17.00;8.80;;;-0.30;99.90;;;;;;5008732;28;20041;-74
2024/01/17 11:08:16;;;;;;;14.23;9.23;;;-0.20;99.90;;;;;;4997732;28;20489;-74
2024/01/17 11:10:47;;;;;;;15.57;8.93;;;-0.10;99.90;;;;;;5010106;28;20034;-74
2024/01/17 11:13:14;;;;;;;19.45;9.38;;;-0.20;99.90;;;;;;5027051;28;20543;-74
2024/01/17 11:15:41;;;;;;;17.55;9.05;;;-0.20;99.90;;;;;;5013595;28;20042;-74
2024/01/17 11:18:10;;;;;;;18.92;8.73;;;-0.20;99.90;;;;;;5015978;28;20041;-74
2024/01/17 11:20:38;;;;;;;16.88;9.23;;;-0.10;99.90;;;;;;5020752;28;20060;-75
2024/01/17 11:23:07;;;;;;;17.15;9.18;;;-0.10;99.90;;;;;;5020744;28;20116;-75
2024/01/17 11:25:50;;;;;;;15.35;8.70;;;-0.10;99.90;;;;;;4999215;28;20386;-74
2024/01/17 11:28:41;;;;;;;16.33;8.68;;;0.00;99.90;;;;;;5000641;28;20080;-73
2024/01/17 11:31:25;;;;;;;16.67;8.15;;;0.00;99.90;;;;;;5033419;28;20068;-73
2024/01/17 11:33:51;;;;;;;17.45;8.65;;;0.00;99.90;;;;;;5031977;28;20052;-73
2024/01/17 11:36:44;;;;;;;14.77;8.25;;;0.00;99.90;;;;;;5029973;28;20041;-73
2024/01/17 11:39:19;;;;;;;15.15;8.65;;;0.00;99.90;;;;;;5014253;28;20076;-73
2024/01/17 11:41:46;;;;;;;19.23;9.30;;;0.10;99.90;;;;;;5025978;28;20502;-74
2024/01/17 11:44:13;;;;;;;16.88;8.77;;;0.10;99.90;;;;;;5031066;28;20037;-75
2024/01/17 11:46:39;;;;;;;19.95;9.02;;;0.10;99.90;;;;;;5007681;28;20073;-76
2024/01/17 11:49:09;;;;;;;15.32;8.60;;;0.10;99.90;;;;;;5030609;28;20037;-75
2024/01/17 11:51:37;;;;;;;16.60;8.90;;;0.20;99.90;;;;;;5015645;28;20061;-75
2024/01/17 11:54:04;;;;;;;15.70;8.45;;;0.20;99.90;;;;;;5002169;28;20037;-74
2024/01/17 11:56:33;;;;;;;18.38;8.63;;;0.20;99.90;;;;;;4999613;28;20038;-74
2024/01/17 11:59:06;;;;;;;13.77;8.55;;;0.20;99.90;;;;;;5031835;28;20045;-74
2024/01/17 12:01:32;;;;;;;15.40;8.38;;;0.20;99.90;;;;;;4992802;28;20044;-74
2024/01/17 12:03:58;;;;;;;16.75;8.90;;;0.20;99.90;;;;;;5009957;28;20501;-73
2024/01/17 12:06:24;;;;;;;16.73;8.82;;;0.30;99.90;;;;;;5032612;28;20033;-73
2024/01/17 12:08:55;;;;;;;15.00;8.45;;;0.30;99.90;;;;;;5010364;28;20052;-72
2024/01/17 12:11:22;;;;;;;15.30;8.85;;;0.30;99.90;;;;;;5012318;28;20296;-74
2024/01/17 12:13:52;;;;;;;17.35;8.80;;;0.30;99.90;;;;;;5013298;28;20458;-73
2024/01/17 12:16:21;;;;;;;19.90;8.55;;;0.40;99.90;;;;;;5013069;28;20072;-75
2024/01/17 12:18:56;;;;;;;15.07;8.40;;;0.40;99.90;;;;;;5006790;28;20069;-73
2024/01/17 12:21:22;;;;;;;17.55;8.43;;;0.40;99.90;;;;;;5029557;28;20083;-74
2024/01/17 12:23:49;;;;;;;15.85;8.85;;;1.20;99.90;;;;;;4998651;28;20042;-75
2024/01/17 12:26:15;;;;;;;14.75;8.65;;;0.50;99.90;;;;;;4995327;28;20045;-74
2024/01/17 12:28:42;;;;;;;13.48;8.65;;;0.50;99.90;;;;;;5029205;28;20046;-75
2024/01/17 12:31:08;;;;;;;14.40;8.45;;;0.50;99.90;;;;;;5027958;28;20037;-75